• Join FlightAware (Why Join?)
  • Login
  • US Flag 
10:15AM EDT


 

Airport Tracker/Info


-or-


 

Live Flight TrackerFlight Track Log ✈ KAP5 ✈ 05-Jul-2013 ✈ KBOS - KACK

Flight Track Log - Related Links

Times and Time Zones

All times are in EDT time to prevent confusion due to time zone crossing. See the KAP5 flight status page for this flight to view local times or setup timezone preferences in your user account.

Time Position Orientation Groundspeed Altitude Reporting Facility
EDT Latitude Longitude Course Direction KTS MPH feet Rate Location/Type
07:56AM 42.3500 -71.0000 166° South 129 148 800  Level KA90
07:58AM 42.3000 -70.9833 166° South 138 159 1,700 600 Climbing KA90
07:59AM 42.2500 -70.9667 166° South 142 163 2,300 540 Climbing KA90
08:00AM 42.2167 -70.9333 143° Southeast 148 170 3,000 540 Climbing KA90
08:02AM 42.1666 -70.8872 109° East  Level Estimated
08:09AM 41.9329 -70.6729 116° Southeast  Level Estimated
08:10AM 41.9605 -70.6332 47° Northeast  Level FlightAware Approximate
08:11AM 41.9260 -70.6049 114° Southeast  Level Estimated
08:12AM 41.9345 -70.5518 78° East  Level FlightAware Approximate
08:13AM 41.9431 -70.4987 78° East  Level FlightAware Approximate
08:14AM 41.9516 -70.4456 78° East  Level FlightAware Approximate
08:15AM 41.9600 -70.3925 78° East  Level FlightAware Approximate
08:16AM 41.9685 -70.3394 78° East  Level FlightAware Approximate
08:17AM 41.9769 -70.2862 78° East  Level FlightAware Approximate
08:18AM 41.9376 -70.2738 180° South  Level Estimated
08:19AM 41.9019 -70.2483 152° Southeast  Level FlightAware Approximate
08:20AM 41.8663 -70.2228 152° Southeast  Level FlightAware Approximate
08:21AM 41.8306 -70.1973 152° Southeast  Level FlightAware Approximate
08:22AM 41.7949 -70.1719 152° Southeast  Level FlightAware Approximate
08:23AM 41.7593 -70.1464 152° Southeast  Level FlightAware Approximate
08:24AM 41.7236 -70.1210 152° Southeast  Level FlightAware Approximate
08:25AM 41.6879 -70.0957 152° Southeast  Level FlightAware Approximate
08:26AM 41.6522 -70.0703 152° Southeast  Level FlightAware Approximate
08:27AM 41.6165 -70.0450 152° Southeast  Level FlightAware Approximate
08:28AM 41.5796 -70.0374 189° South  Level FlightAware Approximate
08:29AM 41.5396 -70.0454 189° South  Level FlightAware Approximate
08:30AM 41.4995 -70.0500 180° South  Level FlightAware Approximate
08:31AM 41.4591 -70.0500 180° South  Level FlightAware Approximate
08:32AM 41.4187 -70.0500 180° South  Level FlightAware Approximate
08:33AM 41.3783 -70.0500 180° South  Level FlightAware Approximate
08:34AM 41.3379 -70.0500 180° South  Level FlightAware Approximate
08:35AM 41.2975 -70.0500 180° South  Level FlightAware Approximate
08:36AM 41.2571 -70.0500 180° South  Level FlightAware Approximate